• Join FlightAware (Why Join?)
  • Login
  • US Flag 
04:31PM EDT


 

Airport Tracker/Info


-or-


 

Live Flight TrackerFlight Track Log ✈ SWA2279 ✈ 10-Aug-2013 ✈ KBWI - KMHT

Flight Track Log - Related Links

Times and Time Zones

All times are in EDT time to prevent confusion due to time zone crossing. See the SWA2279 flight status page for this flight to view local times or setup timezone preferences in your user account.

Time Position Orientation Groundspeed Altitude Reporting Facility
EDT Latitude Longitude Course Direction KTS MPH feet Rate Location/Type
05:54PM 39.1514 -76.7667 108° East 182 209 3,500  Level Washington Center
05:55PM 39.1103 -76.7069 132° Southeast 123 142 5,500 2,580 Climbing Washington Center
05:56PM 39.1239 -76.6031 80° East 137 158 8,800 3,300 Climbing Washington Center
05:57PM 39.1308 -76.4906 85° East 218 251 12,100 2,940 Climbing Washington Center
05:58PM 39.1400 -76.3703 84° East 274 315 14,600 2,820 Climbing Washington Center
05:59PM 39.1643 -76.5906 108° East  Level FlightAware Approximate
05:59PM 39.1472 -76.2419 86° East 316 364 17,900  Level Washington Center
06:00PM 39.1667 -76.1003 80° East 340 391 18,000 180 Climbing Washington Center
06:01PM 39.1836 -75.9664 81° East 364 419 18,300 1,200 Climbing Washington Center
06:02PM 39.2217 -75.8381 69° East 381 438 20,500 2,100 Climbing Washington Center
06:03PM 39.3050 -75.7336 44° Northeast 382 440 22,500 2,160 Climbing Washington Center
06:04PM 39.3906 -75.6211 45° Northeast 406 467 24,800 1,860 Climbing Washington Center
06:05PM 39.4822 -75.5081 44° Northeast 430 495 26,300 1,680 Climbing Washington Center
06:06PM 39.5739 -75.3869 46° Northeast 452 520 28,200 1,740 Climbing Washington Center
06:07PM 39.6694 -75.2600 46° Northeast 467 537 29,800 1,680 Climbing Washington Center
06:08PM 39.7625 -75.1219 49° Northeast 487 560 31,600 1,620 Climbing Washington Center
06:10PM 39.9794 -74.8181 47° Northeast 516 594 35,300 1,500 Climbing New York Center
06:11PM 40.0892 -74.7214 34° Northeast 496 571 36,700 840 Climbing New York Center
06:12PM 40.2158 -74.6714 17° North 466 536 37,000 120 Climbing New York Center
06:13PM 40.3444 -74.6269 15° North 472 543 37,000  Level New York Center
06:14PM 40.4686 -74.5847 15° North 466 536 37,000  Level New York Center
06:16PM 40.7039 -74.5069 14° North 475 547 37,000  Level Boston Center
06:17PM 40.8275 -74.4672 14° North 475 547 37,000  Level Boston Center
06:18PM 40.9553 -74.4244 14° North 469 540 37,000  Level Boston Center
06:19PM 41.0811 -74.3869 13° North 463 533 37,000  Level Boston Center
06:20PM 41.2111 -74.3411 15° North 468 539 37,000  Level Boston Center
06:21PM 41.3494 -74.2928 15° North 468 539 37,000  Level Boston Center
06:22PM 41.4753 -74.2467 15° North 468 539 37,000 -480 Level Boston Center
06:23PM 41.5925 -74.2083 14° North 468 539 36,100 -960 Descending Boston Center
06:24PM 41.7139 -74.1700 13° North 462 532 35,100 -1,020 Descending Boston Center
06:25PM 41.8375 -74.1286 14° North 452 520 34,100 -1,020 Descending Boston Center
06:26PM 41.9592 -74.0844 15° North 447 514 33,200 -1,020 Descending Boston Center
06:27PM 42.0847 -74.0431 14° North 452 520 32,200 -1,140 Descending Boston Center
06:28PM 42.2042 -73.9956 16° North 452 520 31,000 -2,100 Descending Boston Center
06:29PM 42.3161 -73.8944 34° Northeast 452 520 28,000 -2,880 Descending Boston Center
06:30PM 42.4236 -73.7986 33° Northeast 460 529 25,200 -2,040 Descending Boston Center
06:31PM 42.4878 -73.6508 59° Northeast 448 516 24,000 -1,200 Descending Boston Center
06:32PM 42.5289 -73.4853 71° East 412 474 22,900 -1,080 Descending Boston Center
06:33PM 42.5594 -73.3308 75° East 486 559 21,900 -1,020 Descending Boston Center
06:34PM 42.5958 -73.1819 72° East 452 520 20,900 -1,020 Descending Boston Center
06:35PM 42.6322 -73.0297 72° East 410 472 19,900 -1,020 Descending Boston Center
06:36PM 42.6622 -72.8833 74° East 404 465 18,900 -1,020 Descending Boston Center
06:37PM 42.6856 -72.7394 78° East 392 451 17,900 -1,140 Descending Boston Center
06:38PM 42.7108 -72.5956 77° East 387 445 16,700 -1,500 Descending Boston Center
06:39PM 42.7339 -72.4600 77° East 382 440 15,000 -1,680 Descending Boston Center
06:40PM 42.7567 -72.3269 77° East 371 427 13,400 -1,620 Descending Boston Center
06:41PM 42.7753 -72.2025 78° East 352 405 11,800 -1,500 Descending Boston Center
06:42PM 42.7958 -72.0750 78° East 340 391 10,400 -1,380 Descending Boston Center
06:43PM 42.8017 -71.9561 86° East 321 369 9,100 -1,380 Descending Boston Center
06:44PM 42.8072 -71.8403 86° East 311 358 7,700 -1,440 Descending Boston Center
06:45PM 42.8108 -71.7297 87° East 298 343 6,300 -1,560 Descending Boston Center
06:46PM 42.8183 -71.6192 85° East 285 328 4,600 -1,680 Descending Boston Center
06:47PM 42.8239 -71.5172 86° East 285 328 3,000 -1,080 Descending Boston Center
06:48PM 42.8294 -71.4239 85° East 265 305 2,500 -600 Descending Boston Center
06:49PM 42.8583 -71.3892 41° Northeast 149 171 1,900 -840 Descending Boston Center
06:50PM 42.8833 -71.4000 342° North 132 152 1,000 2,340 Descending KA90
06:52PM 42.9544 -71.4386 338° Northwest 113 130 9,000 2,460 Climbing Boston Center
06:53PM 42.9858 -71.4525 342° North 113 130 9,000  Level Boston Center
06:54PM 43.0172 -71.4661 342° North 113 130 9,000  Level Boston Center
06:55PM 43.0486 -71.4797 342° North 113 130 9,000  Level Boston Center
06:57PM 42.9328 -71.4358 168° South  Level Estimated
07:04PM 42.9328 -71.4358 168° South  Level Estimated
07:05PM 42.9328 -71.4358 168° South  Level Estimated
07:06PM 42.9328 -71.4358 168° South  Level Estimated
07:07PM 42.9328 -71.4358 168° South  Level Estimated
07:08PM 42.9328 -71.4358 168° South  Level Estimated